To NAV CANADA Home Page Login to a new session Search on AWWS site Feedback and Comments Disclaimer Vers la page française équivalente Tips FAQ What's new on the site To the Forecasts and Observations / NOTAM section To "File a Flight Plan" website Publications and other links Update of the User's profile FIC Telephone Numbers My Weather Data Folder Route Weather Data Regional Weather Data Local Weather Data To the Forecasts and Observations / NOTAM section
Request Generated 03/27/2015 at 11:53:15 UTC . Weather information available at that time is displayed.

METAR/TAF

CAPE DORSET/NU    

SPECI CYTE 271131Z 28007KT 15SM BKN005 M20/M22 A2962 RMK ST5 SLP036=
METAR CYTE 271100Z 27012KT 15SM DRSN FEW005 M20/M22 A2962 RMK SF2
-17.0/-22.3/0/30 SNW CVR/TRACE LOOSE SLP037=
METAR CYTE 271000Z AUTO 27007KT 9SM CLR M20/M24 A2964 RMK SLP043=
METAR CYTE 270900Z AUTO 28006KT 9SM CLR M22/M24 A2965 RMK SLP048=

TAF AMD CYTE 271143Z 2711/2719 27008KT P6SM SCT005 TEMPO 2711/2715
BKN005
FM271500 25012KT P6SM SCT005 BKN080 TEMPO 2715/2719 5SM IC
RMK NXT FCST BY 271300Z=
Your time UTC time
Weather data provided by Environment Canada and NAV CANADA